sensor_id;sensor_type;location;lat;lon;timestamp;P1;durP1;ratioP1;P2;durP2;ratioP2
28772;SDS011;15925;51.222;5.678;2023-05-29T00:00:47;23.40;;;2.87;;
28772;SDS011;15925;51.222;5.678;2023-05-29T00:03:13;5.10;;;2.47;;
28772;SDS011;15925;51.222;5.678;2023-05-29T00:05:38;13.33;;;2.83;;
28772;SDS011;15925;51.222;5.678;2023-05-29T00:08:05;14.48;;;2.75;;
28772;SDS011;15925;51.222;5.678;2023-05-29T00:12:57;9.82;;;2.95;;
28772;SDS011;15925;51.222;5.678;2023-05-29T00:15:26;5.15;;;2.53;;
28772;SDS011;15925;51.222;5.678;2023-05-29T00:17:52;12.80;;;2.50;;
28772;SDS011;15925;51.222;5.678;2023-05-29T00:20:17;9.50;;;2.97;;
28772;SDS011;15925;51.222;5.678;2023-05-29T00:22:43;4.30;;;1.90;;
28772;SDS011;15925;51.222;5.678;2023-05-29T00:25:09;8.30;;;2.50;;
28772;SDS011;15925;51.222;5.678;2023-05-29T00:27:35;8.60;;;2.50;;
28772;SDS011;15925;51.222;5.678;2023-05-29T00:30:01;5.72;;;1.92;;
28772;SDS011;15925;51.222;5.678;2023-05-29T00:32:28;24.90;;;2.75;;
28772;SDS011;15925;51.222;5.678;2023-05-29T00:34:54;7.43;;;2.53;;
28772;SDS011;15925;51.222;5.678;2023-05-29T00:37:20;5.10;;;2.20;;
28772;SDS011;15925;51.222;5.678;2023-05-29T00:39:50;9.18;;;3.08;;
28772;SDS011;15925;51.222;5.678;2023-05-29T00:42:15;6.47;;;2.00;;
28772;SDS011;15925;51.222;5.678;2023-05-29T00:44:41;5.80;;;2.75;;
28772;SDS011;15925;51.222;5.678;2023-05-29T00:47:07;9.30;;;3.07;;
28772;SDS011;15925;51.222;5.678;2023-05-29T00:49:33;24.47;;;3.93;;
28772;SDS011;15925;51.222;5.678;2023-05-29T00:52:01;8.18;;;2.85;;
28772;SDS011;15925;51.222;5.678;2023-05-29T00:54:28;10.27;;;3.35;;
28772;SDS011;15925;51.222;5.678;2023-05-29T00:56:59;4.90;;;2.70;;
28772;SDS011;15925;51.222;5.678;2023-05-29T00:59:27;10.57;;;3.20;;
28772;SDS011;15925;51.222;5.678;2023-05-29T01:01:55;5.28;;;2.42;;
28772;SDS011;15925;51.222;5.678;2023-05-29T01:04:23;5.20;;;2.45;;
28772;SDS011;15925;51.222;5.678;2023-05-29T01:06:50;7.72;;;3.17;;
28772;SDS011;15925;51.222;5.678;2023-05-29T01:09:16;16.33;;;3.08;;
28772;SDS011;15925;51.222;5.678;2023-05-29T01:14:44;7.85;;;2.80;;
28772;SDS011;15925;51.222;5.678;2023-05-29T01:28:30;15.88;;;3.80;;
28772;SDS011;15925;51.222;5.678;2023-05-29T01:31:02;12.60;;;3.42;;
28772;SDS011;15925;51.222;5.678;2023-05-29T01:33:29;15.15;;;3.40;;
28772;SDS011;15925;51.222;5.678;2023-05-29T01:35:55;4.50;;;2.43;;
28772;SDS011;15925;51.222;5.678;2023-05-29T01:38:21;10.75;;;2.47;;
28772;SDS011;15925;51.222;5.678;2023-05-29T01:40:49;4.07;;;1.50;;
28772;SDS011;15925;51.222;5.678;2023-05-29T01:43:16;10.90;;;2.38;;
28772;SDS011;15925;51.222;5.678;2023-05-29T01:45:42;12.00;;;2.40;;
28772;SDS011;15925;51.222;5.678;2023-05-29T01:50:34;19.15;;;2.17;;
28772;SDS011;15925;51.222;5.678;2023-05-29T01:55:27;6.47;;;2.38;;
28772;SDS011;15925;51.222;5.678;2023-05-29T01:57:53;8.73;;;2.83;;
28772;SDS011;15925;51.222;5.678;2023-05-29T02:00:20;17.45;;;1.60;;
28772;SDS011;15925;51.222;5.678;2023-05-29T02:02:46;10.17;;;2.53;;
28772;SDS011;15925;51.222;5.678;2023-05-29T02:05:13;6.07;;;1.88;;
28772;SDS011;15925;51.222;5.678;2023-05-29T02:07:39;9.67;;;2.00;;
28772;SDS011;15925;51.222;5.678;2023-05-29T02:10:05;8.23;;;1.63;;
28772;SDS011;15925;51.222;5.678;2023-05-29T02:12:31;24.20;;;1.92;;
28772;SDS011;15925;51.222;5.678;2023-05-29T02:14:57;7.20;;;1.95;;
28772;SDS011;15925;51.222;5.678;2023-05-29T02:17:23;9.07;;;2.05;;
28772;SDS011;15925;51.222;5.678;2023-05-29T02:19:49;5.13;;;1.38;;
28772;SDS011;15925;51.222;5.678;2023-05-29T02:22:16;10.55;;;1.35;;
28772;SDS011;15925;51.222;5.678;2023-05-29T02:24:43;5.78;;;1.55;;
28772;SDS011;15925;51.222;5.678;2023-05-29T02:27:09;6.68;;;1.50;;
28772;SDS011;15925;51.222;5.678;2023-05-29T02:29:35;10.97;;;1.57;;
28772;SDS011;15925;51.222;5.678;2023-05-29T02:32:00;13.80;;;1.83;;
28772;SDS011;15925;51.222;5.678;2023-05-29T02:34:26;13.30;;;1.38;;
28772;SDS011;15925;51.222;5.678;2023-05-29T02:36:52;9.43;;;2.10;;
28772;SDS011;15925;51.222;5.678;2023-05-29T02:39:19;10.40;;;1.70;;
28772;SDS011;15925;51.222;5.678;2023-05-29T02:41:45;20.45;;;2.83;;
28772;SDS011;15925;51.222;5.678;2023-05-29T02:44:11;5.13;;;1.50;;
28772;SDS011;15925;51.222;5.678;2023-05-29T02:46:36;5.97;;;1.77;;
28772;SDS011;15925;51.222;5.678;2023-05-29T02:49:02;4.63;;;1.43;;
28772;SDS011;15925;51.222;5.678;2023-05-29T02:51:29;13.90;;;1.70;;
28772;SDS011;15925;51.222;5.678;2023-05-29T02:53:55;10.30;;;1.35;;
28772;SDS011;15925;51.222;5.678;2023-05-29T02:56:20;3.63;;;0.83;;
28772;SDS011;15925;51.222;5.678;2023-05-29T02:58:52;2.95;;;1.25;;
28772;SDS011;15925;51.222;5.678;2023-05-29T03:01:18;6.60;;;1.77;;
28772;SDS011;15925;51.222;5.678;2023-05-29T03:03:44;9.20;;;1.58;;
28772;SDS011;15925;51.222;5.678;2023-05-29T03:06:11;14.50;;;1.67;;
28772;SDS011;15925;51.222;5.678;2023-05-29T03:08:39;7.60;;;1.17;;
28772;SDS011;15925;51.222;5.678;2023-05-29T03:11:08;19.63;;;1.65;;
28772;SDS011;15925;51.222;5.678;2023-05-29T03:13:36;14.50;;;2.72;;
28772;SDS011;15925;51.222;5.678;2023-05-29T03:16:05;15.02;;;2.90;;
28772;SDS011;15925;51.222;5.678;2023-05-29T03:18:33;9.38;;;1.73;;
28772;SDS011;15925;51.222;5.678;2023-05-29T03:21:00;11.68;;;1.40;;
28772;SDS011;15925;51.222;5.678;2023-05-29T03:23:27;11.95;;;1.33;;
28772;SDS011;15925;51.222;5.678;2023-05-29T03:25:53;8.85;;;2.00;;
28772;SDS011;15925;51.222;5.678;2023-05-29T03:28:19;9.27;;;1.73;;
28772;SDS011;15925;51.222;5.678;2023-05-29T03:30:46;8.70;;;1.35;;
28772;SDS011;15925;51.222;5.678;2023-05-29T03:33:15;5.60;;;1.13;;
28772;SDS011;15925;51.222;5.678;2023-05-29T03:35:57;13.65;;;1.92;;
28772;SDS011;15925;51.222;5.678;2023-05-29T03:38:23;26.93;;;2.40;;
28772;SDS011;15925;51.222;5.678;2023-05-29T03:40:51;16.92;;;2.03;;
28772;SDS011;15925;51.222;5.678;2023-05-29T03:43:17;19.00;;;1.43;;
28772;SDS011;15925;51.222;5.678;2023-05-29T03:45:43;7.40;;;1.17;;
28772;SDS011;15925;51.222;5.678;2023-05-29T03:48:11;19.45;;;2.10;;
28772;SDS011;15925;51.222;5.678;2023-05-29T03:50:37;11.48;;;0.85;;
28772;SDS011;15925;51.222;5.678;2023-05-29T03:53:03;14.68;;;1.77;;
28772;SDS011;15925;51.222;5.678;2023-05-29T03:55:29;10.07;;;1.63;;
28772;SDS011;15925;51.222;5.678;2023-05-29T03:57:56;7.15;;;1.02;;
28772;SDS011;15925;51.222;5.678;2023-05-29T04:00:22;8.30;;;1.73;;
28772;SDS011;15925;51.222;5.678;2023-05-29T04:02:50;5.28;;;1.08;;
28772;SDS011;15925;51.222;5.678;2023-05-29T04:05:17;8.23;;;1.55;;
28772;SDS011;15925;51.222;5.678;2023-05-29T04:07:44;8.43;;;1.33;;
28772;SDS011;15925;51.222;5.678;2023-05-29T04:10:11;16.10;;;1.33;;
28772;SDS011;15925;51.222;5.678;2023-05-29T04:12:37;15.67;;;1.73;;
28772;SDS011;15925;51.222;5.678;2023-05-29T04:15:03;7.70;;;0.87;;
28772;SDS011;15925;51.222;5.678;2023-05-29T04:17:29;3.05;;;0.88;;
28772;SDS011;15925;51.222;5.678;2023-05-29T04:19:54;6.10;;;1.50;;
28772;SDS011;15925;51.222;5.678;2023-05-29T04:22:20;9.90;;;0.77;;
28772;SDS011;15925;51.222;5.678;2023-05-29T04:24:46;10.07;;;1.50;;
28772;SDS011;15925;51.222;5.678;2023-05-29T04:27:13;4.35;;;1.27;;
28772;SDS011;15925;51.222;5.678;2023-05-29T04:29:39;11.70;;;1.38;;
28772;SDS011;15925;51.222;5.678;2023-05-29T04:32:09;13.73;;;1.50;;
28772;SDS011;15925;51.222;5.678;2023-05-29T04:34:37;5.20;;;0.98;;
28772;SDS011;15925;51.222;5.678;2023-05-29T04:37:10;8.18;;;2.13;;
28772;SDS011;15925;51.222;5.678;2023-05-29T04:39:37;5.90;;;1.40;;
28772;SDS011;15925;51.222;5.678;2023-05-29T04:42:04;13.35;;;0.98;;
28772;SDS011;15925;51.222;5.678;2023-05-29T04:46:59;13.50;;;1.48;;
28772;SDS011;15925;51.222;5.678;2023-05-29T04:49:28;26.10;;;1.73;;
28772;SDS011;15925;51.222;5.678;2023-05-29T04:51:54;8.93;;;1.35;;
28772;SDS011;15925;51.222;5.678;2023-05-29T04:54:21;12.63;;;1.23;;
28772;SDS011;15925;51.222;5.678;2023-05-29T04:56:51;7.05;;;1.33;;
28772;SDS011;15925;51.222;5.678;2023-05-29T04:59:18;5.68;;;1.13;;
28772;SDS011;15925;51.222;5.678;2023-05-29T05:01:44;3.35;;;0.85;;
28772;SDS011;15925;51.222;5.678;2023-05-29T05:04:12;15.40;;;1.85;;
28772;SDS011;15925;51.222;5.678;2023-05-29T05:06:38;5.83;;;1.13;;
28772;SDS011;15925;51.222;5.678;2023-05-29T05:09:05;19.25;;;2.00;;
28772;SDS011;15925;51.222;5.678;2023-05-29T05:11:31;3.30;;;0.77;;
28772;SDS011;15925;51.222;5.678;2023-05-29T05:13:58;6.18;;;2.15;;
28772;SDS011;15925;51.222;5.678;2023-05-29T05:16:23;7.17;;;1.37;;
28772;SDS011;15925;51.222;5.678;2023-05-29T05:18:50;4.68;;;2.22;;
28772;SDS011;15925;51.222;5.678;2023-05-29T05:21:16;12.67;;;1.80;;
28772;SDS011;15925;51.222;5.678;2023-05-29T05:23:41;0.53;;;0.50;;
28772;SDS011;15925;51.222;5.678;2023-05-29T05:26:09;14.52;;;1.20;;
28772;SDS011;15925;51.222;5.678;2023-05-29T05:28:35;8.30;;;1.77;;
28772;SDS011;15925;51.222;5.678;2023-05-29T05:31:01;6.37;;;1.47;;
28772;SDS011;15925;51.222;5.678;2023-05-29T05:33:30;17.83;;;1.85;;
28772;SDS011;15925;51.222;5.678;2023-05-29T05:35:56;6.05;;;1.95;;
28772;SDS011;15925;51.222;5.678;2023-05-29T05:38:22;1.47;;;1.03;;
28772;SDS011;15925;51.222;5.678;2023-05-29T05:40:48;6.90;;;1.50;;
28772;SDS011;15925;51.222;5.678;2023-05-29T05:43:21;4.55;;;1.60;;
28772;SDS011;15925;51.222;5.678;2023-05-29T05:46:06;11.65;;;1.63;;
28772;SDS011;15925;51.222;5.678;2023-05-29T05:48:34;8.13;;;1.23;;
28772;SDS011;15925;51.222;5.678;2023-05-29T05:51:00;11.63;;;1.40;;
28772;SDS011;15925;51.222;5.678;2023-05-29T05:53:25;6.13;;;0.80;;
28772;SDS011;15925;51.222;5.678;2023-05-29T05:55:51;5.57;;;1.30;;
28772;SDS011;15925;51.222;5.678;2023-05-29T05:58:17;12.47;;;2.43;;
28772;SDS011;15925;51.222;5.678;2023-05-29T06:00:43;7.90;;;1.48;;
28772;SDS011;15925;51.222;5.678;2023-05-29T06:03:09;11.47;;;1.87;;
28772;SDS011;15925;51.222;5.678;2023-05-29T06:05:51;13.65;;;1.60;;
28772;SDS011;15925;51.222;5.678;2023-05-29T06:08:17;10.23;;;1.05;;
28772;SDS011;15925;51.222;5.678;2023-05-29T06:10:43;1.93;;;0.73;;
28772;SDS011;15925;51.222;5.678;2023-05-29T06:13:09;18.65;;;2.00;;
28772;SDS011;15925;51.222;5.678;2023-05-29T06:15:44;9.40;;;1.65;;
28772;SDS011;15925;51.222;5.678;2023-05-29T06:18:10;6.78;;;1.05;;
28772;SDS011;15925;51.222;5.678;2023-05-29T06:20:37;7.80;;;0.95;;
28772;SDS011;15925;51.222;5.678;2023-05-29T06:23:03;2.90;;;1.58;;
28772;SDS011;15925;51.222;5.678;2023-05-29T06:25:29;5.47;;;1.25;;
28772;SDS011;15925;51.222;5.678;2023-05-29T06:27:59;13.85;;;1.63;;
28772;SDS011;15925;51.222;5.678;2023-05-29T06:30:26;9.27;;;1.05;;
28772;SDS011;15925;51.222;5.678;2023-05-29T06:32:52;9.52;;;1.95;;
28772;SDS011;15925;51.222;5.678;2023-05-29T06:35:22;9.15;;;1.75;;
28772;SDS011;15925;51.222;5.678;2023-05-29T06:37:48;13.70;;;1.87;;
28772;SDS011;15925;51.222;5.678;2023-05-29T06:40:14;12.97;;;1.83;;
28772;SDS011;15925;51.222;5.678;2023-05-29T06:42:43;11.80;;;2.05;;
28772;SDS011;15925;51.222;5.678;2023-05-29T06:45:13;6.82;;;1.40;;
28772;SDS011;15925;51.222;5.678;2023-05-29T06:47:39;15.52;;;1.27;;
28772;SDS011;15925;51.222;5.678;2023-05-29T06:50:06;11.52;;;1.20;;
28772;SDS011;15925;51.222;5.678;2023-05-29T06:55:19;7.43;;;1.67;;
28772;SDS011;15925;51.222;5.678;2023-05-29T06:57:45;6.82;;;1.10;;
28772;SDS011;15925;51.222;5.678;2023-05-29T07:00:11;8.77;;;1.17;;
28772;SDS011;15925;51.222;5.678;2023-05-29T07:02:44;12.57;;;1.58;;
28772;SDS011;15925;51.222;5.678;2023-05-29T07:05:10;10.00;;;1.80;;
28772;SDS011;15925;51.222;5.678;2023-05-29T07:07:36;10.32;;;1.33;;
28772;SDS011;15925;51.222;5.678;2023-05-29T07:10:02;18.40;;;1.10;;
28772;SDS011;15925;51.222;5.678;2023-05-29T07:12:29;6.00;;;1.38;;
28772;SDS011;15925;51.222;5.678;2023-05-29T07:14:55;9.77;;;1.45;;
28772;SDS011;15925;51.222;5.678;2023-05-29T07:17:21;7.38;;;1.45;;
28772;SDS011;15925;51.222;5.678;2023-05-29T07:19:55;6.50;;;1.10;;
28772;SDS011;15925;51.222;5.678;2023-05-29T07:22:21;13.53;;;2.10;;
28772;SDS011;15925;51.222;5.678;2023-05-29T07:24:47;10.00;;;1.50;;
28772;SDS011;15925;51.222;5.678;2023-05-29T07:27:13;19.60;;;2.20;;
28772;SDS011;15925;51.222;5.678;2023-05-29T07:29:39;4.83;;;1.27;;
28772;SDS011;15925;51.222;5.678;2023-05-29T07:34:31;12.38;;;1.25;;
28772;SDS011;15925;51.222;5.678;2023-05-29T07:39:30;7.00;;;1.42;;
28772;SDS011;15925;51.222;5.678;2023-05-29T07:42:00;4.55;;;1.27;;
28772;SDS011;15925;51.222;5.678;2023-05-29T07:44:27;4.03;;;1.48;;
28772;SDS011;15925;51.222;5.678;2023-05-29T07:46:54;10.05;;;0.90;;
28772;SDS011;15925;51.222;5.678;2023-05-29T07:49:30;7.47;;;1.55;;
28772;SDS011;15925;51.222;5.678;2023-05-29T07:51:55;5.78;;;1.45;;
28772;SDS011;15925;51.222;5.678;2023-05-29T07:54:22;13.20;;;1.33;;
28772;SDS011;15925;51.222;5.678;2023-05-29T07:56:48;9.93;;;1.35;;
28772;SDS011;15925;51.222;5.678;2023-05-29T07:59:15;21.77;;;1.65;;
28772;SDS011;15925;51.222;5.678;2023-05-29T08:04:20;11.68;;;1.50;;
28772;SDS011;15925;51.222;5.678;2023-05-29T08:06:46;9.70;;;1.10;;
28772;SDS011;15925;51.222;5.678;2023-05-29T08:09:12;2.42;;;1.02;;
28772;SDS011;15925;51.222;5.678;2023-05-29T08:11:38;8.00;;;1.70;;
28772;SDS011;15925;51.222;5.678;2023-05-29T08:14:04;15.93;;;1.33;;
28772;SDS011;15925;51.222;5.678;2023-05-29T08:16:30;21.15;;;1.65;;
28772;SDS011;15925;51.222;5.678;2023-05-29T08:18:57;12.10;;;2.03;;
28772;SDS011;15925;51.222;5.678;2023-05-29T08:21:22;12.43;;;1.70;;
28772;SDS011;15925;51.222;5.678;2023-05-29T08:23:50;14.68;;;1.70;;
28772;SDS011;15925;51.222;5.678;2023-05-29T08:26:16;9.37;;;1.30;;
28772;SDS011;15925;51.222;5.678;2023-05-29T08:28:42;14.07;;;2.17;;
28772;SDS011;15925;51.222;5.678;2023-05-29T08:31:07;11.37;;;1.07;;
28772;SDS011;15925;51.222;5.678;2023-05-29T08:33:33;6.10;;;2.23;;
28772;SDS011;15925;51.222;5.678;2023-05-29T08:35:59;13.93;;;1.50;;
28772;SDS011;15925;51.222;5.678;2023-05-29T08:38:25;11.50;;;2.05;;
28772;SDS011;15925;51.222;5.678;2023-05-29T08:40:51;19.43;;;2.07;;
28772;SDS011;15925;51.222;5.678;2023-05-29T08:43:21;9.73;;;1.70;;
28772;SDS011;15925;51.222;5.678;2023-05-29T08:45:47;9.68;;;1.65;;
28772;SDS011;15925;51.222;5.678;2023-05-29T08:48:18;5.07;;;1.42;;
28772;SDS011;15925;51.222;5.678;2023-05-29T08:50:48;19.63;;;1.60;;
28772;SDS011;15925;51.222;5.678;2023-05-29T08:53:16;6.47;;;1.15;;
28772;SDS011;15925;51.222;5.678;2023-05-29T08:55:44;9.52;;;1.83;;
28772;SDS011;15925;51.222;5.678;2023-05-29T08:58:12;12.70;;;1.35;;
28772;SDS011;15925;51.222;5.678;2023-05-29T09:00:43;10.10;;;1.23;;
28772;SDS011;15925;51.222;5.678;2023-05-29T09:03:10;9.50;;;1.92;;
28772;SDS011;15925;51.222;5.678;2023-05-29T09:05:41;10.52;;;1.00;;
28772;SDS011;15925;51.222;5.678;2023-05-29T09:08:08;7.00;;;1.13;;
28772;SDS011;15925;51.222;5.678;2023-05-29T09:10:35;8.40;;;1.38;;
28772;SDS011;15925;51.222;5.678;2023-05-29T09:13:01;7.13;;;1.43;;
28772;SDS011;15925;51.222;5.678;2023-05-29T09:15:27;6.67;;;1.13;;
28772;SDS011;15925;51.222;5.678;2023-05-29T09:17:54;6.00;;;1.90;;
28772;SDS011;15925;51.222;5.678;2023-05-29T09:20:21;10.20;;;1.95;;
28772;SDS011;15925;51.222;5.678;2023-05-29T09:23:06;6.00;;;1.50;;
28772;SDS011;15925;51.222;5.678;2023-05-29T09:25:35;10.82;;;2.20;;
28772;SDS011;15925;51.222;5.678;2023-05-29T09:28:06;12.25;;;1.60;;
28772;SDS011;15925;51.222;5.678;2023-05-29T09:33:02;7.57;;;1.33;;
28772;SDS011;15925;51.222;5.678;2023-05-29T09:35:33;1.88;;;0.70;;
28772;SDS011;15925;51.222;5.678;2023-05-29T09:38:02;6.47;;;1.50;;
28772;SDS011;15925;51.222;5.678;2023-05-29T09:40:35;7.63;;;1.30;;
28772;SDS011;15925;51.222;5.678;2023-05-29T09:43:06;6.30;;;1.55;;
28772;SDS011;15925;51.222;5.678;2023-05-29T09:45:39;5.10;;;1.10;;
28772;SDS011;15925;51.222;5.678;2023-05-29T09:48:12;15.90;;;1.20;;
28772;SDS011;15925;51.222;5.678;2023-05-29T09:50:40;11.00;;;1.73;;
28772;SDS011;15925;51.222;5.678;2023-05-29T09:53:16;5.70;;;1.15;;
28772;SDS011;15925;51.222;5.678;2023-05-29T09:58:13;14.20;;;2.00;;
28772;SDS011;15925;51.222;5.678;2023-05-29T10:00:43;15.85;;;1.05;;
28772;SDS011;15925;51.222;5.678;2023-05-29T10:03:10;19.15;;;1.20;;
28772;SDS011;15925;51.222;5.678;2023-05-29T10:05:46;20.17;;;2.13;;
28772;SDS011;15925;51.222;5.678;2023-05-29T10:08:17;5.15;;;0.95;;
28772;SDS011;15925;51.222;5.678;2023-05-29T10:10:44;7.82;;;1.35;;
28772;SDS011;15925;51.222;5.678;2023-05-29T10:13:36;7.47;;;1.05;;
28772;SDS011;15925;51.222;5.678;2023-05-29T10:16:04;15.98;;;1.48;;
28772;SDS011;15925;51.222;5.678;2023-05-29T10:18:39;6.32;;;1.10;;
28772;SDS011;15925;51.222;5.678;2023-05-29T10:21:10;5.38;;;1.38;;
28772;SDS011;15925;51.222;5.678;2023-05-29T10:23:37;6.03;;;1.42;;
28772;SDS011;15925;51.222;5.678;2023-05-29T10:26:10;10.70;;;1.33;;
28772;SDS011;15925;51.222;5.678;2023-05-29T10:28:42;1.27;;;0.73;;
28772;SDS011;15925;51.222;5.678;2023-05-29T10:31:18;10.75;;;1.80;;
28772;SDS011;15925;51.222;5.678;2023-05-29T10:36:59;12.82;;;0.98;;
28772;SDS011;15925;51.222;5.678;2023-05-29T10:39:31;10.43;;;1.55;;
28772;SDS011;15925;51.222;5.678;2023-05-29T10:41:58;4.95;;;1.02;;
28772;SDS011;15925;51.222;5.678;2023-05-29T10:47:07;11.10;;;1.08;;
28772;SDS011;15925;51.222;5.678;2023-05-29T10:49:33;5.82;;;1.15;;
28772;SDS011;15925;51.222;5.678;2023-05-29T10:51:59;3.00;;;1.03;;
28772;SDS011;15925;51.222;5.678;2023-05-29T10:54:25;9.05;;;1.35;;
28772;SDS011;15925;51.222;5.678;2023-05-29T10:56:52;12.13;;;1.27;;
28772;SDS011;15925;51.222;5.678;2023-05-29T10:59:22;4.95;;;0.88;;
28772;SDS011;15925;51.222;5.678;2023-05-29T11:01:52;4.00;;;0.85;;
28772;SDS011;15925;51.222;5.678;2023-05-29T11:06:50;3.53;;;0.32;;
28772;SDS011;15925;51.222;5.678;2023-05-29T11:09:30;11.35;;;1.02;;
28772;SDS011;15925;51.222;5.678;2023-05-29T11:20:08;4.57;;;1.13;;
28772;SDS011;15925;51.222;5.678;2023-05-29T11:25:25;4.60;;;1.40;;
28772;SDS011;15925;51.222;5.678;2023-05-29T11:27:52;9.07;;;1.70;;
28772;SDS011;15925;51.222;5.678;2023-05-29T11:30:21;13.30;;;1.83;;
28772;SDS011;15925;51.222;5.678;2023-05-29T11:32:47;6.80;;;1.60;;
28772;SDS011;15925;51.222;5.678;2023-05-29T11:35:14;13.38;;;0.60;;
28772;SDS011;15925;51.222;5.678;2023-05-29T11:37:41;4.32;;;1.25;;
28772;SDS011;15925;51.222;5.678;2023-05-29T11:40:09;4.90;;;0.95;;
28772;SDS011;15925;51.222;5.678;2023-05-29T11:42:36;9.32;;;1.00;;
28772;SDS011;15925;51.222;5.678;2023-05-29T11:45:13;6.35;;;0.90;;
28772;SDS011;15925;51.222;5.678;2023-05-29T11:47:56;2.08;;;1.10;;
28772;SDS011;15925;51.222;5.678;2023-05-29T11:50:27;7.32;;;1.42;;
28772;SDS011;15925;51.222;5.678;2023-05-29T11:52:55;3.95;;;0.80;;
28772;SDS011;15925;51.222;5.678;2023-05-29T11:55:22;5.78;;;0.70;;
28772;SDS011;15925;51.222;5.678;2023-05-29T11:57:49;13.52;;;1.98;;
28772;SDS011;15925;51.222;5.678;2023-05-29T12:00:16;9.93;;;1.35;;
28772;SDS011;15925;51.222;5.678;2023-05-29T12:02:44;2.75;;;1.10;;
28772;SDS011;15925;51.222;5.678;2023-05-29T12:05:15;13.30;;;1.85;;
28772;SDS011;15925;51.222;5.678;2023-05-29T12:07:53;8.15;;;0.80;;
28772;SDS011;15925;51.222;5.678;2023-05-29T12:10:21;2.05;;;0.80;;
28772;SDS011;15925;51.222;5.678;2023-05-29T12:15:21;4.28;;;1.00;;
28772;SDS011;15925;51.222;5.678;2023-05-29T12:20:14;6.60;;;0.82;;
28772;SDS011;15925;51.222;5.678;2023-05-29T12:22:40;3.95;;;1.17;;
28772;SDS011;15925;51.222;5.678;2023-05-29T12:25:11;2.38;;;0.88;;
28772;SDS011;15925;51.222;5.678;2023-05-29T12:27:41;2.08;;;1.02;;
28772;SDS011;15925;51.222;5.678;2023-05-29T12:32:44;5.90;;;0.90;;
28772;SDS011;15925;51.222;5.678;2023-05-29T12:37:57;7.25;;;1.00;;
28772;SDS011;15925;51.222;5.678;2023-05-29T12:40:31;1.95;;;0.55;;
28772;SDS011;15925;51.222;5.678;2023-05-29T12:45:31;6.38;;;0.57;;
28772;SDS011;15925;51.222;5.678;2023-05-29T12:47:59;4.57;;;0.63;;
28772;SDS011;15925;51.222;5.678;2023-05-29T12:50:33;6.03;;;1.05;;
28772;SDS011;15925;51.222;5.678;2023-05-29T12:53:04;2.78;;;0.82;;
28772;SDS011;15925;51.222;5.678;2023-05-29T12:55:35;5.63;;;0.63;;
28772;SDS011;15925;51.222;5.678;2023-05-29T12:58:03;11.13;;;1.13;;
28772;SDS011;15925;51.222;5.678;2023-05-29T13:02:56;8.00;;;0.65;;
28772;SDS011;15925;51.222;5.678;2023-05-29T13:05:22;8.00;;;1.30;;
28772;SDS011;15925;51.222;5.678;2023-05-29T13:07:48;1.88;;;1.10;;
28772;SDS011;15925;51.222;5.678;2023-05-29T13:10:15;8.00;;;1.08;;
28772;SDS011;15925;51.222;5.678;2023-05-29T13:12:42;5.50;;;0.88;;
28772;SDS011;15925;51.222;5.678;2023-05-29T13:17:35;2.35;;;1.20;;
28772;SDS011;15925;51.222;5.678;2023-05-29T13:20:01;2.33;;;1.20;;
28772;SDS011;15925;51.222;5.678;2023-05-29T13:22:27;3.78;;;1.00;;
28772;SDS011;15925;51.222;5.678;2023-05-29T13:24:57;7.80;;;1.15;;
28772;SDS011;15925;51.222;5.678;2023-05-29T13:27:23;6.78;;;1.15;;
28772;SDS011;15925;51.222;5.678;2023-05-29T13:29:49;2.27;;;0.87;;
28772;SDS011;15925;51.222;5.678;2023-05-29T13:32:15;2.45;;;0.80;;
28772;SDS011;15925;51.222;5.678;2023-05-29T13:34:42;3.08;;;0.90;;
28772;SDS011;15925;51.222;5.678;2023-05-29T13:37:07;11.88;;;1.20;;
28772;SDS011;15925;51.222;5.678;2023-05-29T13:39:33;6.00;;;1.17;;
28772;SDS011;15925;51.222;5.678;2023-05-29T13:41:59;4.33;;;0.83;;
28772;SDS011;15925;51.222;5.678;2023-05-29T13:44:25;2.53;;;1.08;;
28772;SDS011;15925;51.222;5.678;2023-05-29T13:46:51;4.22;;;0.85;;
28772;SDS011;15925;51.222;5.678;2023-05-29T13:49:17;2.60;;;0.97;;
28772;SDS011;15925;51.222;5.678;2023-05-29T13:51:43;11.88;;;1.73;;
28772;SDS011;15925;51.222;5.678;2023-05-29T13:54:11;4.10;;;0.90;;
28772;SDS011;15925;51.222;5.678;2023-05-29T13:56:37;3.25;;;0.63;;
28772;SDS011;15925;51.222;5.678;2023-05-29T13:59:03;12.38;;;1.30;;
28772;SDS011;15925;51.222;5.678;2023-05-29T14:01:34;8.73;;;1.13;;
28772;SDS011;15925;51.222;5.678;2023-05-29T14:03:59;7.25;;;0.73;;
28772;SDS011;15925;51.222;5.678;2023-05-29T14:06:26;11.93;;;2.10;;
28772;SDS011;15925;51.222;5.678;2023-05-29T14:08:51;3.33;;;0.77;;
28772;SDS011;15925;51.222;5.678;2023-05-29T14:11:18;5.05;;;1.05;;
28772;SDS011;15925;51.222;5.678;2023-05-29T14:13:43;14.20;;;1.33;;
28772;SDS011;15925;51.222;5.678;2023-05-29T14:16:09;2.85;;;0.88;;
28772;SDS011;15925;51.222;5.678;2023-05-29T14:18:35;3.50;;;1.07;;
28772;SDS011;15925;51.222;5.678;2023-05-29T14:21:01;8.73;;;1.87;;
28772;SDS011;15925;51.222;5.678;2023-05-29T14:23:26;3.63;;;0.60;;
28772;SDS011;15925;51.222;5.678;2023-05-29T14:25:52;7.30;;;1.43;;
28772;SDS011;15925;51.222;5.678;2023-05-29T14:28:18;13.43;;;1.27;;
28772;SDS011;15925;51.222;5.678;2023-05-29T14:30:44;2.42;;;0.93;;
28772;SDS011;15925;51.222;5.678;2023-05-29T14:33:10;6.22;;;1.50;;
28772;SDS011;15925;51.222;5.678;2023-05-29T14:35:36;7.07;;;1.27;;
28772;SDS011;15925;51.222;5.678;2023-05-29T14:38:01;7.30;;;1.17;;
28772;SDS011;15925;51.222;5.678;2023-05-29T14:40:27;5.40;;;0.90;;
28772;SDS011;15925;51.222;5.678;2023-05-29T14:42:53;2.27;;;1.00;;
28772;SDS011;15925;51.222;5.678;2023-05-29T14:45:19;2.15;;;0.70;;
28772;SDS011;15925;51.222;5.678;2023-05-29T14:47:45;12.07;;;0.93;;
28772;SDS011;15925;51.222;5.678;2023-05-29T14:50:11;6.75;;;1.30;;
28772;SDS011;15925;51.222;5.678;2023-05-29T14:52:37;7.45;;;0.60;;
28772;SDS011;15925;51.222;5.678;2023-05-29T14:55:05;4.32;;;0.95;;
28772;SDS011;15925;51.222;5.678;2023-05-29T14:57:32;5.38;;;1.13;;
28772;SDS011;15925;51.222;5.678;2023-05-29T14:59:59;8.38;;;1.35;;
28772;SDS011;15925;51.222;5.678;2023-05-29T15:02:26;4.40;;;0.95;;
28772;SDS011;15925;51.222;5.678;2023-05-29T15:04:51;8.73;;;1.35;;
28772;SDS011;15925;51.222;5.678;2023-05-29T15:07:17;13.85;;;1.17;;
28772;SDS011;15925;51.222;5.678;2023-05-29T15:09:43;5.53;;;0.67;;
28772;SDS011;15925;51.222;5.678;2023-05-29T15:12:09;6.03;;;1.23;;
28772;SDS011;15925;51.222;5.678;2023-05-29T15:14:35;8.52;;;1.08;;
28772;SDS011;15925;51.222;5.678;2023-05-29T15:17:02;6.80;;;1.00;;
28772;SDS011;15925;51.222;5.678;2023-05-29T15:19:29;5.20;;;1.08;;
28772;SDS011;15925;51.222;5.678;2023-05-29T15:21:55;5.85;;;0.75;;
28772;SDS011;15925;51.222;5.678;2023-05-29T15:24:23;3.30;;;1.02;;
28772;SDS011;15925;51.222;5.678;2023-05-29T15:26:48;4.45;;;0.77;;
28772;SDS011;15925;51.222;5.678;2023-05-29T15:29:15;7.97;;;0.98;;
28772;SDS011;15925;51.222;5.678;2023-05-29T15:31:41;5.55;;;1.15;;
28772;SDS011;15925;51.222;5.678;2023-05-29T15:34:07;4.85;;;1.15;;
28772;SDS011;15925;51.222;5.678;2023-05-29T15:36:33;4.90;;;1.17;;
28772;SDS011;15925;51.222;5.678;2023-05-29T15:39:01;3.97;;;1.20;;
28772;SDS011;15925;51.222;5.678;2023-05-29T15:41:31;3.55;;;0.77;;
28772;SDS011;15925;51.222;5.678;2023-05-29T15:43:57;7.37;;;1.47;;
28772;SDS011;15925;51.222;5.678;2023-05-29T15:46:25;7.82;;;1.15;;
28772;SDS011;15925;51.222;5.678;2023-05-29T15:48:52;5.13;;;1.02;;
28772;SDS011;15925;51.222;5.678;2023-05-29T15:51:17;8.37;;;1.20;;
28772;SDS011;15925;51.222;5.678;2023-05-29T15:53:43;2.93;;;1.30;;
28772;SDS011;15925;51.222;5.678;2023-05-29T15:56:09;6.95;;;1.30;;
28772;SDS011;15925;51.222;5.678;2023-05-29T15:58:35;10.33;;;1.30;;
28772;SDS011;15925;51.222;5.678;2023-05-29T16:01:01;3.20;;;1.08;;